sensor_id;sensor_type;location;lat;lon;timestamp;P1;durP1;ratioP1;P2;durP2;ratioP2
6898;SDS011;3488;42.616;23.350;2023-02-28T00:01:20;19.75;;;11.20;;
6898;SDS011;3488;42.616;23.350;2023-02-28T00:03:47;21.67;;;11.43;;
6898;SDS011;3488;42.616;23.350;2023-02-28T00:06:14;18.77;;;11.52;;
6898;SDS011;3488;42.616;23.350;2023-02-28T00:08:43;22.40;;;12.20;;
6898;SDS011;3488;42.616;23.350;2023-02-28T00:11:11;21.92;;;11.50;;
6898;SDS011;3488;42.616;23.350;2023-02-28T00:13:40;19.10;;;10.90;;
6898;SDS011;3488;42.616;23.350;2023-02-28T00:16:09;20.23;;;11.00;;
6898;SDS011;3488;42.616;23.350;2023-02-28T00:18:40;16.55;;;10.15;;
6898;SDS011;3488;42.616;23.350;2023-02-28T00:21:09;19.80;;;11.80;;
6898;SDS011;3488;42.616;23.350;2023-02-28T00:23:36;20.80;;;12.30;;
6898;SDS011;3488;42.616;23.350;2023-02-28T00:26:05;19.17;;;12.02;;
6898;SDS011;3488;42.616;23.350;2023-02-28T00:28:33;20.10;;;11.05;;
6898;SDS011;3488;42.616;23.350;2023-02-28T00:31:00;19.90;;;11.38;;
6898;SDS011;3488;42.616;23.350;2023-02-28T00:33:27;22.80;;;12.02;;
6898;SDS011;3488;42.616;23.350;2023-02-28T00:36:01;21.25;;;11.85;;
6898;SDS011;3488;42.616;23.350;2023-02-28T00:38:30;19.42;;;11.27;;
6898;SDS011;3488;42.616;23.350;2023-02-28T00:40:57;14.48;;;9.32;;
6898;SDS011;3488;42.616;23.350;2023-02-28T00:43:31;21.95;;;11.98;;
6898;SDS011;3488;42.616;23.350;2023-02-28T00:45:58;20.15;;;11.05;;
6898;SDS011;3488;42.616;23.350;2023-02-28T00:48:25;17.92;;;10.25;;
6898;SDS011;3488;42.616;23.350;2023-02-28T00:50:53;20.08;;;11.18;;
6898;SDS011;3488;42.616;23.350;2023-02-28T00:53:20;18.08;;;11.52;;
6898;SDS011;3488;42.616;23.350;2023-02-28T00:55:48;19.65;;;11.13;;
6898;SDS011;3488;42.616;23.350;2023-02-28T00:58:15;17.30;;;10.82;;
6898;SDS011;3488;42.616;23.350;2023-02-28T01:00:44;20.58;;;10.85;;
6898;SDS011;3488;42.616;23.350;2023-02-28T01:03:14;19.88;;;11.18;;
6898;SDS011;3488;42.616;23.350;2023-02-28T01:05:41;20.65;;;10.93;;
6898;SDS011;3488;42.616;23.350;2023-02-28T01:08:08;15.95;;;10.40;;
6898;SDS011;3488;42.616;23.350;2023-02-28T01:10:35;16.10;;;10.40;;
6898;SDS011;3488;42.616;23.350;2023-02-28T01:13:03;13.40;;;10.10;;
6898;SDS011;3488;42.616;23.350;2023-02-28T01:15:30;20.83;;;10.82;;
6898;SDS011;3488;42.616;23.350;2023-02-28T01:18:00;18.83;;;10.75;;
6898;SDS011;3488;42.616;23.350;2023-02-28T01:20:27;15.18;;;10.65;;
6898;SDS011;3488;42.616;23.350;2023-02-28T01:22:54;16.60;;;10.68;;
6898;SDS011;3488;42.616;23.350;2023-02-28T01:25:21;18.90;;;11.45;;
6898;SDS011;3488;42.616;23.350;2023-02-28T01:27:48;17.17;;;10.43;;
6898;SDS011;3488;42.616;23.350;2023-02-28T01:30:15;18.00;;;11.23;;
6898;SDS011;3488;42.616;23.350;2023-02-28T01:32:42;22.45;;;12.68;;
6898;SDS011;3488;42.616;23.350;2023-02-28T01:35:10;19.20;;;12.35;;
6898;SDS011;3488;42.616;23.350;2023-02-28T01:37:38;20.58;;;11.75;;
6898;SDS011;3488;42.616;23.350;2023-02-28T01:40:05;23.15;;;12.48;;
6898;SDS011;3488;42.616;23.350;2023-02-28T01:42:33;20.85;;;12.45;;
6898;SDS011;3488;42.616;23.350;2023-02-28T01:45:02;32.20;;;15.45;;
6898;SDS011;3488;42.616;23.350;2023-02-28T01:47:35;27.35;;;15.43;;
6898;SDS011;3488;42.616;23.350;2023-02-28T01:50:06;22.58;;;12.13;;
6898;SDS011;3488;42.616;23.350;2023-02-28T01:52:37;32.60;;;15.75;;
6898;SDS011;3488;42.616;23.350;2023-02-28T01:55:04;32.28;;;16.50;;
6898;SDS011;3488;42.616;23.350;2023-02-28T01:57:34;138.35;;;22.05;;
6898;SDS011;3488;42.616;23.350;2023-02-28T02:00:05;38.33;;;17.52;;
6898;SDS011;3488;42.616;23.350;2023-02-28T02:02:35;31.83;;;17.65;;
6898;SDS011;3488;42.616;23.350;2023-02-28T02:05:04;45.17;;;16.95;;
6898;SDS011;3488;42.616;23.350;2023-02-28T02:07:34;66.70;;;17.70;;
6898;SDS011;3488;42.616;23.350;2023-02-28T02:10:05;46.28;;;16.33;;
6898;SDS011;3488;42.616;23.350;2023-02-28T02:15:39;46.40;;;18.13;;
6898;SDS011;3488;42.616;23.350;2023-02-28T02:18:12;46.83;;;17.08;;
6898;SDS011;3488;42.616;23.350;2023-02-28T02:23:54;62.17;;;18.50;;
6898;SDS011;3488;42.616;23.350;2023-02-28T02:26:49;35.03;;;16.42;;
6898;SDS011;3488;42.616;23.350;2023-02-28T02:35:49;70.88;;;16.92;;
6898;SDS011;3488;42.616;23.350;2023-02-28T02:38:24;91.93;;;17.30;;
6898;SDS011;3488;42.616;23.350;2023-02-28T02:41:00;57.75;;;15.07;;
6898;SDS011;3488;42.616;23.350;2023-02-28T02:43:33;91.43;;;16.33;;
6898;SDS011;3488;42.616;23.350;2023-02-28T02:46:04;49.40;;;14.98;;
6898;SDS011;3488;42.616;23.350;2023-02-28T02:48:36;60.30;;;15.43;;
6898;SDS011;3488;42.616;23.350;2023-02-28T02:51:09;103.18;;;17.55;;
6898;SDS011;3488;42.616;23.350;2023-02-28T02:53:41;53.83;;;16.42;;
6898;SDS011;3488;42.616;23.350;2023-02-28T02:56:14;48.55;;;16.65;;
6898;SDS011;3488;42.616;23.350;2023-02-28T02:58:44;53.72;;;17.33;;
6898;SDS011;3488;42.616;23.350;2023-02-28T03:01:17;41.28;;;15.23;;
6898;SDS011;3488;42.616;23.350;2023-02-28T03:03:54;35.58;;;14.10;;
6898;SDS011;3488;42.616;23.350;2023-02-28T03:06:24;55.40;;;14.98;;
6898;SDS011;3488;42.616;23.350;2023-02-28T03:08:51;30.38;;;14.40;;
6898;SDS011;3488;42.616;23.350;2023-02-28T03:11:19;35.95;;;14.32;;
6898;SDS011;3488;42.616;23.350;2023-02-28T03:17:03;28.23;;;14.15;;
6898;SDS011;3488;42.616;23.350;2023-02-28T03:19:47;39.97;;;14.48;;
6898;SDS011;3488;42.616;23.350;2023-02-28T03:22:29;34.92;;;15.20;;
6898;SDS011;3488;42.616;23.350;2023-02-28T03:25:07;24.98;;;13.23;;
6898;SDS011;3488;42.616;23.350;2023-02-28T03:27:41;33.50;;;13.95;;
6898;SDS011;3488;42.616;23.350;2023-02-28T03:30:17;41.03;;;13.00;;
6898;SDS011;3488;42.616;23.350;2023-02-28T03:32:53;29.20;;;11.73;;
6898;SDS011;3488;42.616;23.350;2023-02-28T03:35:23;23.10;;;12.43;;
6898;SDS011;3488;42.616;23.350;2023-02-28T03:38:00;33.28;;;14.02;;
6898;SDS011;3488;42.616;23.350;2023-02-28T03:40:32;38.58;;;14.13;;
6898;SDS011;3488;42.616;23.350;2023-02-28T03:43:07;24.50;;;13.05;;
6898;SDS011;3488;42.616;23.350;2023-02-28T03:45:39;24.63;;;13.07;;
6898;SDS011;3488;42.616;23.350;2023-02-28T03:48:11;31.10;;;13.73;;
6898;SDS011;3488;42.616;23.350;2023-02-28T03:50:44;29.77;;;13.52;;
6898;SDS011;3488;42.616;23.350;2023-02-28T03:53:16;27.58;;;12.82;;
6898;SDS011;3488;42.616;23.350;2023-02-28T03:55:47;32.85;;;13.07;;
6898;SDS011;3488;42.616;23.350;2023-02-28T03:58:17;41.08;;;13.93;;
6898;SDS011;3488;42.616;23.350;2023-02-28T04:00:50;85.65;;;15.38;;
6898;SDS011;3488;42.616;23.350;2023-02-28T04:03:22;39.80;;;13.57;;
6898;SDS011;3488;42.616;23.350;2023-02-28T04:05:50;185.20;;;21.52;;
6898;SDS011;3488;42.616;23.350;2023-02-28T04:08:21;73.15;;;15.50;;
6898;SDS011;3488;42.616;23.350;2023-02-28T04:10:50;66.47;;;15.57;;
6898;SDS011;3488;42.616;23.350;2023-02-28T04:13:22;102.35;;;21.33;;
6898;SDS011;3488;42.616;23.350;2023-02-28T04:15:49;243.75;;;29.42;;
6898;SDS011;3488;42.616;23.350;2023-02-28T04:18:16;110.97;;;19.08;;
6898;SDS011;3488;42.616;23.350;2023-02-28T04:20:43;123.50;;;20.77;;
6898;SDS011;3488;42.616;23.350;2023-02-28T04:23:10;277.73;;;29.40;;
6898;SDS011;3488;42.616;23.350;2023-02-28T04:25:38;124.70;;;19.38;;
6898;SDS011;3488;42.616;23.350;2023-02-28T04:28:06;78.18;;;17.35;;
6898;SDS011;3488;42.616;23.350;2023-02-28T04:30:34;155.75;;;21.65;;
6898;SDS011;3488;42.616;23.350;2023-02-28T04:33:02;35.35;;;15.80;;
6898;SDS011;3488;42.616;23.350;2023-02-28T04:35:29;89.57;;;19.27;;
6898;SDS011;3488;42.616;23.350;2023-02-28T04:37:57;84.55;;;17.05;;
6898;SDS011;3488;42.616;23.350;2023-02-28T04:40:24;44.00;;;16.88;;
6898;SDS011;3488;42.616;23.350;2023-02-28T04:42:53;120.60;;;18.83;;
6898;SDS011;3488;42.616;23.350;2023-02-28T04:45:20;85.90;;;16.17;;
6898;SDS011;3488;42.616;23.350;2023-02-28T04:47:47;96.10;;;16.98;;
6898;SDS011;3488;42.616;23.350;2023-02-28T04:50:14;45.35;;;15.38;;
6898;SDS011;3488;42.616;23.350;2023-02-28T04:52:42;45.53;;;17.08;;
6898;SDS011;3488;42.616;23.350;2023-02-28T04:55:09;90.32;;;17.23;;
6898;SDS011;3488;42.616;23.350;2023-02-28T04:57:36;33.42;;;13.93;;
6898;SDS011;3488;42.616;23.350;2023-02-28T05:00:06;135.48;;;21.98;;
6898;SDS011;3488;42.616;23.350;2023-02-28T05:02:36;52.05;;;14.63;;
6898;SDS011;3488;42.616;23.350;2023-02-28T05:05:04;69.82;;;16.13;;
6898;SDS011;3488;42.616;23.350;2023-02-28T05:07:32;103.53;;;17.63;;
6898;SDS011;3488;42.616;23.350;2023-02-28T05:09:59;183.80;;;19.77;;
6898;SDS011;3488;42.616;23.350;2023-02-28T05:12:26;51.80;;;14.48;;
6898;SDS011;3488;42.616;23.350;2023-02-28T05:14:53;78.00;;;17.52;;
6898;SDS011;3488;42.616;23.350;2023-02-28T05:17:21;102.47;;;17.65;;
6898;SDS011;3488;42.616;23.350;2023-02-28T05:19:48;40.63;;;15.25;;
6898;SDS011;3488;42.616;23.350;2023-02-28T05:22:15;119.15;;;18.52;;
6898;SDS011;3488;42.616;23.350;2023-02-28T05:24:42;92.10;;;17.52;;
6898;SDS011;3488;42.616;23.350;2023-02-28T05:27:09;89.32;;;15.85;;
6898;SDS011;3488;42.616;23.350;2023-02-28T05:29:36;47.90;;;14.70;;
6898;SDS011;3488;42.616;23.350;2023-02-28T05:32:08;73.82;;;16.02;;
6898;SDS011;3488;42.616;23.350;2023-02-28T05:34:38;50.30;;;14.30;;
6898;SDS011;3488;42.616;23.350;2023-02-28T05:37:06;77.32;;;16.63;;
6898;SDS011;3488;42.616;23.350;2023-02-28T05:39:37;110.82;;;18.95;;
6898;SDS011;3488;42.616;23.350;2023-02-28T05:42:04;102.28;;;15.73;;
6898;SDS011;3488;42.616;23.350;2023-02-28T05:44:31;103.97;;;16.60;;
6898;SDS011;3488;42.616;23.350;2023-02-28T05:46:58;45.60;;;14.15;;
6898;SDS011;3488;42.616;23.350;2023-02-28T05:49:25;49.47;;;14.75;;
6898;SDS011;3488;42.616;23.350;2023-02-28T05:51:55;42.55;;;13.85;;
6898;SDS011;3488;42.616;23.350;2023-02-28T05:54:22;59.83;;;16.02;;
6898;SDS011;3488;42.616;23.350;2023-02-28T05:56:49;38.75;;;15.32;;
6898;SDS011;3488;42.616;23.350;2023-02-28T05:59:16;26.65;;;15.73;;
6898;SDS011;3488;42.616;23.350;2023-02-28T06:01:44;37.40;;;14.77;;
6898;SDS011;3488;42.616;23.350;2023-02-28T06:04:13;31.15;;;15.88;;
6898;SDS011;3488;42.616;23.350;2023-02-28T06:06:43;61.95;;;18.13;;
6898;SDS011;3488;42.616;23.350;2023-02-28T06:09:12;88.82;;;18.38;;
6898;SDS011;3488;42.616;23.350;2023-02-28T06:11:40;56.05;;;16.63;;
6898;SDS011;3488;42.616;23.350;2023-02-28T06:14:12;66.78;;;17.50;;
6898;SDS011;3488;42.616;23.350;2023-02-28T06:16:41;60.08;;;17.17;;
6898;SDS011;3488;42.616;23.350;2023-02-28T06:19:09;62.13;;;18.08;;
6898;SDS011;3488;42.616;23.350;2023-02-28T06:21:38;83.72;;;18.90;;
6898;SDS011;3488;42.616;23.350;2023-02-28T06:24:05;42.45;;;17.85;;
6898;SDS011;3488;42.616;23.350;2023-02-28T06:26:34;33.10;;;17.10;;
6898;SDS011;3488;42.616;23.350;2023-02-28T06:29:02;48.53;;;17.20;;
6898;SDS011;3488;42.616;23.350;2023-02-28T06:31:29;32.65;;;16.15;;
6898;SDS011;3488;42.616;23.350;2023-02-28T06:33:56;27.73;;;15.60;;
6898;SDS011;3488;42.616;23.350;2023-02-28T06:36:26;28.08;;;14.15;;
6898;SDS011;3488;42.616;23.350;2023-02-28T06:38:53;24.67;;;13.88;;
6898;SDS011;3488;42.616;23.350;2023-02-28T06:41:22;25.45;;;14.40;;
6898;SDS011;3488;42.616;23.350;2023-02-28T06:43:51;26.48;;;15.35;;
6898;SDS011;3488;42.616;23.350;2023-02-28T06:46:20;31.20;;;14.60;;
6898;SDS011;3488;42.616;23.350;2023-02-28T06:48:48;21.88;;;12.30;;
6898;SDS011;3488;42.616;23.350;2023-02-28T06:51:16;17.25;;;9.80;;
6898;SDS011;3488;42.616;23.350;2023-02-28T06:53:47;24.02;;;10.57;;
6898;SDS011;3488;42.616;23.350;2023-02-28T06:56:17;20.10;;;11.30;;
6898;SDS011;3488;42.616;23.350;2023-02-28T06:58:46;21.85;;;12.52;;
6898;SDS011;3488;42.616;23.350;2023-02-28T07:01:15;20.45;;;12.18;;
6898;SDS011;3488;42.616;23.350;2023-02-28T07:03:42;26.35;;;13.55;;
6898;SDS011;3488;42.616;23.350;2023-02-28T07:06:09;27.20;;;14.32;;
6898;SDS011;3488;42.616;23.350;2023-02-28T07:08:36;26.10;;;14.25;;
6898;SDS011;3488;42.616;23.350;2023-02-28T07:11:05;28.42;;;15.90;;
6898;SDS011;3488;42.616;23.350;2023-02-28T07:13:32;34.47;;;17.50;;
6898;SDS011;3488;42.616;23.350;2023-02-28T07:15:59;35.75;;;18.23;;
6898;SDS011;3488;42.616;23.350;2023-02-28T07:18:29;39.13;;;19.02;;
6898;SDS011;3488;42.616;23.350;2023-02-28T07:20:57;31.77;;;18.70;;
6898;SDS011;3488;42.616;23.350;2023-02-28T07:23:24;40.30;;;18.05;;
6898;SDS011;3488;42.616;23.350;2023-02-28T07:25:51;52.10;;;28.58;;
6898;SDS011;3488;42.616;23.350;2023-02-28T07:28:18;38.15;;;18.23;;
6898;SDS011;3488;42.616;23.350;2023-02-28T07:30:45;36.33;;;18.50;;
6898;SDS011;3488;42.616;23.350;2023-02-28T07:33:13;33.65;;;18.33;;
6898;SDS011;3488;42.616;23.350;2023-02-28T07:35:42;40.50;;;17.60;;
6898;SDS011;3488;42.616;23.350;2023-02-28T07:38:09;29.83;;;17.58;;
6898;SDS011;3488;42.616;23.350;2023-02-28T07:40:37;33.58;;;18.65;;
6898;SDS011;3488;42.616;23.350;2023-02-28T07:43:04;32.30;;;17.80;;
6898;SDS011;3488;42.616;23.350;2023-02-28T07:45:31;27.75;;;16.58;;
6898;SDS011;3488;42.616;23.350;2023-02-28T07:47:59;31.58;;;17.30;;
6898;SDS011;3488;42.616;23.350;2023-02-28T07:50:26;34.63;;;18.42;;
6898;SDS011;3488;42.616;23.350;2023-02-28T07:52:57;33.45;;;17.55;;
6898;SDS011;3488;42.616;23.350;2023-02-28T07:55:24;29.17;;;14.68;;
6898;SDS011;3488;42.616;23.350;2023-02-28T07:57:51;26.73;;;15.15;;
6898;SDS011;3488;42.616;23.350;2023-02-28T08:00:19;30.98;;;15.73;;
6898;SDS011;3488;42.616;23.350;2023-02-28T08:02:46;30.13;;;17.10;;
6898;SDS011;3488;42.616;23.350;2023-02-28T08:05:13;27.02;;;15.93;;
6898;SDS011;3488;42.616;23.350;2023-02-28T08:07:40;24.02;;;15.13;;
6898;SDS011;3488;42.616;23.350;2023-02-28T08:10:09;22.10;;;13.52;;
6898;SDS011;3488;42.616;23.350;2023-02-28T08:12:36;27.75;;;15.35;;
6898;SDS011;3488;42.616;23.350;2023-02-28T08:15:04;29.23;;;15.45;;
6898;SDS011;3488;42.616;23.350;2023-02-28T08:17:31;28.35;;;14.45;;
6898;SDS011;3488;42.616;23.350;2023-02-28T08:19:58;29.48;;;14.40;;
6898;SDS011;3488;42.616;23.350;2023-02-28T08:22:25;23.38;;;14.18;;
6898;SDS011;3488;42.616;23.350;2023-02-28T08:24:52;26.35;;;14.65;;
6898;SDS011;3488;42.616;23.350;2023-02-28T08:27:20;26.15;;;14.60;;
6898;SDS011;3488;42.616;23.350;2023-02-28T08:29:47;22.75;;;13.65;;
6898;SDS011;3488;42.616;23.350;2023-02-28T08:32:14;18.98;;;10.38;;
6898;SDS011;3488;42.616;23.350;2023-02-28T08:34:41;17.70;;;9.60;;
6898;SDS011;3488;42.616;23.350;2023-02-28T08:37:08;23.00;;;9.55;;
6898;SDS011;3488;42.616;23.350;2023-02-28T08:39:35;20.60;;;9.38;;
6898;SDS011;3488;42.616;23.350;2023-02-28T08:42:02;17.05;;;8.90;;
6898;SDS011;3488;42.616;23.350;2023-02-28T08:44:31;27.13;;;8.98;;
6898;SDS011;3488;42.616;23.350;2023-02-28T08:46:59;19.77;;;9.27;;
6898;SDS011;3488;42.616;23.350;2023-02-28T08:49:26;15.15;;;8.18;;
6898;SDS011;3488;42.616;23.350;2023-02-28T08:51:53;17.08;;;8.38;;
6898;SDS011;3488;42.616;23.350;2023-02-28T08:54:22;15.48;;;8.15;;
6898;SDS011;3488;42.616;23.350;2023-02-28T08:56:49;17.25;;;9.30;;
6898;SDS011;3488;42.616;23.350;2023-02-28T08:59:16;15.05;;;7.95;;
6898;SDS011;3488;42.616;23.350;2023-02-28T09:01:45;19.30;;;7.63;;
6898;SDS011;3488;42.616;23.350;2023-02-28T09:04:12;15.35;;;7.65;;
6898;SDS011;3488;42.616;23.350;2023-02-28T09:06:38;16.83;;;7.47;;
6898;SDS011;3488;42.616;23.350;2023-02-28T09:09:05;14.95;;;7.45;;
6898;SDS011;3488;42.616;23.350;2023-02-28T09:11:32;15.63;;;8.27;;
6898;SDS011;3488;42.616;23.350;2023-02-28T09:14:00;15.27;;;8.70;;
6898;SDS011;3488;42.616;23.350;2023-02-28T09:16:29;14.43;;;9.18;;
6898;SDS011;3488;42.616;23.350;2023-02-28T09:18:59;12.60;;;8.63;;
6898;SDS011;3488;42.616;23.350;2023-02-28T09:21:26;15.10;;;9.23;;
6898;SDS011;3488;42.616;23.350;2023-02-28T09:23:53;18.50;;;8.82;;
6898;SDS011;3488;42.616;23.350;2023-02-28T09:26:21;13.95;;;9.13;;
6898;SDS011;3488;42.616;23.350;2023-02-28T09:28:50;14.90;;;8.82;;
6898;SDS011;3488;42.616;23.350;2023-02-28T09:31:19;15.90;;;7.95;;
6898;SDS011;3488;42.616;23.350;2023-02-28T09:33:47;19.10;;;8.52;;
6898;SDS011;3488;42.616;23.350;2023-02-28T09:36:15;12.73;;;7.90;;
6898;SDS011;3488;42.616;23.350;2023-02-28T09:38:43;12.65;;;7.68;;
6898;SDS011;3488;42.616;23.350;2023-02-28T09:41:12;15.77;;;7.85;;
6898;SDS011;3488;42.616;23.350;2023-02-28T09:43:43;10.85;;;7.55;;
6898;SDS011;3488;42.616;23.350;2023-02-28T09:46:17;15.38;;;8.43;;
6898;SDS011;3488;42.616;23.350;2023-02-28T09:48:56;15.15;;;8.35;;
6898;SDS011;3488;42.616;23.350;2023-02-28T09:51:33;15.77;;;8.88;;
6898;SDS011;3488;42.616;23.350;2023-02-28T09:54:11;18.10;;;9.32;;
6898;SDS011;3488;42.616;23.350;2023-02-28T09:56:44;14.38;;;7.20;;
6898;SDS011;3488;42.616;23.350;2023-02-28T09:59:18;14.02;;;8.02;;
6898;SDS011;3488;42.616;23.350;2023-02-28T10:02:00;20.00;;;8.30;;
6898;SDS011;3488;42.616;23.350;2023-02-28T10:04:41;17.50;;;8.18;;
6898;SDS011;3488;42.616;23.350;2023-02-28T10:07:20;19.17;;;8.20;;
6898;SDS011;3488;42.616;23.350;2023-02-28T10:09:54;16.30;;;7.45;;
6898;SDS011;3488;42.616;23.350;2023-02-28T10:12:23;13.63;;;7.93;;
6898;SDS011;3488;42.616;23.350;2023-02-28T10:14:54;12.20;;;6.47;;
6898;SDS011;3488;42.616;23.350;2023-02-28T10:17:23;17.95;;;8.10;;
6898;SDS011;3488;42.616;23.350;2023-02-28T10:20:05;16.40;;;8.10;;
6898;SDS011;3488;42.616;23.350;2023-02-28T10:22:41;13.82;;;8.15;;
6898;SDS011;3488;42.616;23.350;2023-02-28T10:25:19;17.42;;;7.55;;
6898;SDS011;3488;42.616;23.350;2023-02-28T10:27:47;22.73;;;8.23;;
6898;SDS011;3488;42.616;23.350;2023-02-28T10:30:15;19.77;;;6.90;;
6898;SDS011;3488;42.616;23.350;2023-02-28T10:32:44;11.55;;;6.60;;
6898;SDS011;3488;42.616;23.350;2023-02-28T10:35:16;18.88;;;6.78;;
6898;SDS011;3488;42.616;23.350;2023-02-28T10:37:47;16.92;;;7.13;;
6898;SDS011;3488;42.616;23.350;2023-02-28T10:40:27;18.50;;;7.18;;
6898;SDS011;3488;42.616;23.350;2023-02-28T10:42:57;11.77;;;6.90;;
6898;SDS011;3488;42.616;23.350;2023-02-28T10:45:25;18.30;;;7.32;;
6898;SDS011;3488;42.616;23.350;2023-02-28T10:47:55;11.05;;;5.82;;
6898;SDS011;3488;42.616;23.350;2023-02-28T10:50:27;13.90;;;6.80;;
6898;SDS011;3488;42.616;23.350;2023-02-28T10:53:04;16.20;;;7.43;;
6898;SDS011;3488;42.616;23.350;2023-02-28T10:55:39;21.10;;;7.43;;
6898;SDS011;3488;42.616;23.350;2023-02-28T10:58:17;12.70;;;7.05;;
6898;SDS011;3488;42.616;23.350;2023-02-28T11:00:47;16.88;;;6.70;;
6898;SDS011;3488;42.616;23.350;2023-02-28T11:03:23;18.20;;;8.15;;
6898;SDS011;3488;42.616;23.350;2023-02-28T11:05:52;13.98;;;7.88;;
6898;SDS011;3488;42.616;23.350;2023-02-28T11:08:20;13.80;;;7.93;;
6898;SDS011;3488;42.616;23.350;2023-02-28T11:10:48;18.80;;;7.95;;
6898;SDS011;3488;42.616;23.350;2023-02-28T11:13:24;15.82;;;8.27;;
6898;SDS011;3488;42.616;23.350;2023-02-28T11:15:55;13.43;;;7.43;;
6898;SDS011;3488;42.616;23.350;2023-02-28T11:18:24;24.80;;;7.88;;
6898;SDS011;3488;42.616;23.350;2023-02-28T11:20:56;12.45;;;8.18;;
6898;SDS011;3488;42.616;23.350;2023-02-28T11:23:27;17.23;;;7.95;;
6898;SDS011;3488;42.616;23.350;2023-02-28T11:25:58;13.95;;;7.65;;
6898;SDS011;3488;42.616;23.350;2023-02-28T11:28:28;15.00;;;6.90;;
6898;SDS011;3488;42.616;23.350;2023-02-28T11:31:01;15.68;;;8.52;;
6898;SDS011;3488;42.616;23.350;2023-02-28T11:33:31;15.48;;;7.78;;
6898;SDS011;3488;42.616;23.350;2023-02-28T11:36:09;17.40;;;8.27;;
6898;SDS011;3488;42.616;23.350;2023-02-28T11:38:40;18.20;;;8.57;;
6898;SDS011;3488;42.616;23.350;2023-02-28T11:44:13;19.80;;;8.90;;
6898;SDS011;3488;42.616;23.350;2023-02-28T11:46:50;13.55;;;8.13;;
6898;SDS011;3488;42.616;23.350;2023-02-28T11:49:27;20.83;;;8.85;;
6898;SDS011;3488;42.616;23.350;2023-02-28T11:52:01;17.05;;;8.77;;
6898;SDS011;3488;42.616;23.350;2023-02-28T11:54:44;16.83;;;8.93;;
6898;SDS011;3488;42.616;23.350;2023-02-28T11:57:28;14.20;;;8.85;;
6898;SDS011;3488;42.616;23.350;2023-02-28T12:00:19;18.85;;;8.95;;
6898;SDS011;3488;42.616;23.350;2023-02-28T12:03:07;15.93;;;8.85;;
6898;SDS011;3488;42.616;23.350;2023-02-28T12:05:44;21.13;;;8.73;;
6898;SDS011;3488;42.616;23.350;2023-02-28T12:08:20;15.38;;;8.65;;
6898;SDS011;3488;42.616;23.350;2023-02-28T12:11:04;15.45;;;10.13;;
6898;SDS011;3488;42.616;23.350;2023-02-28T12:13:41;24.75;;;9.48;;
6898;SDS011;3488;42.616;23.350;2023-02-28T12:19:16;18.63;;;9.55;;
6898;SDS011;3488;42.616;23.350;2023-02-28T12:21:49;17.40;;;9.45;;
6898;SDS011;3488;42.616;23.350;2023-02-28T12:24:52;15.75;;;9.52;;
6898;SDS011;3488;42.616;23.350;2023-02-28T12:27:26;17.13;;;10.38;;
6898;SDS011;3488;42.616;23.350;2023-02-28T12:30:00;25.90;;;9.63;;
6898;SDS011;3488;42.616;23.350;2023-02-28T12:32:33;14.93;;;9.55;;
6898;SDS011;3488;42.616;23.350;2023-02-28T12:35:06;21.02;;;9.48;;
6898;SDS011;3488;42.616;23.350;2023-02-28T12:37:41;16.98;;;8.57;;
6898;SDS011;3488;42.616;23.350;2023-02-28T12:40:14;22.88;;;9.05;;
6898;SDS011;3488;42.616;23.350;2023-02-28T12:42:46;24.52;;;9.85;;
6898;SDS011;3488;42.616;23.350;2023-02-28T12:45:17;25.02;;;10.90;;
6898;SDS011;3488;42.616;23.350;2023-02-28T12:47:48;16.33;;;10.35;;
6898;SDS011;3488;42.616;23.350;2023-02-28T12:50:19;23.42;;;9.93;;
6898;SDS011;3488;42.616;23.350;2023-02-28T12:52:50;21.77;;;9.60;;
6898;SDS011;3488;42.616;23.350;2023-02-28T12:55:27;16.88;;;8.32;;
6898;SDS011;3488;42.616;23.350;2023-02-28T12:58:07;16.65;;;9.80;;
6898;SDS011;3488;42.616;23.350;2023-02-28T13:00:44;23.98;;;10.90;;
6898;SDS011;3488;42.616;23.350;2023-02-28T13:03:28;20.00;;;10.50;;
6898;SDS011;3488;42.616;23.350;2023-02-28T13:06:14;23.50;;;10.15;;
6898;SDS011;3488;42.616;23.350;2023-02-28T13:09:04;23.15;;;11.05;;
6898;SDS011;3488;42.616;23.350;2023-02-28T13:11:39;15.98;;;10.52;;
6898;SDS011;3488;42.616;23.350;2023-02-28T13:14:18;22.65;;;11.50;;
6898;SDS011;3488;42.616;23.350;2023-02-28T13:16:54;21.35;;;11.05;;
6898;SDS011;3488;42.616;23.350;2023-02-28T13:19:25;16.83;;;10.02;;
6898;SDS011;3488;42.616;23.350;2023-02-28T13:21:55;17.65;;;9.50;;
6898;SDS011;3488;42.616;23.350;2023-02-28T13:24:38;23.30;;;9.48;;
6898;SDS011;3488;42.616;23.350;2023-02-28T13:30:02;16.15;;;8.40;;
6898;SDS011;3488;42.616;23.350;2023-02-28T13:33:23;13.77;;;9.32;;
6898;SDS011;3488;42.616;23.350;2023-02-28T13:36:08;15.10;;;10.20;;
6898;SDS011;3488;42.616;23.350;2023-02-28T13:38:49;19.80;;;11.77;;
6898;SDS011;3488;42.616;23.350;2023-02-28T13:44:15;23.55;;;8.73;;
6898;SDS011;3488;42.616;23.350;2023-02-28T13:49:54;18.33;;;9.38;;
6898;SDS011;3488;42.616;23.350;2023-02-28T13:52:43;14.65;;;7.55;;
6898;SDS011;3488;42.616;23.350;2023-02-28T13:55:23;15.88;;;8.10;;
6898;SDS011;3488;42.616;23.350;2023-02-28T13:57:57;19.20;;;8.73;;
6898;SDS011;3488;42.616;23.350;2023-02-28T14:00:37;16.50;;;9.25;;
6898;SDS011;3488;42.616;23.350;2023-02-28T14:03:28;20.67;;;8.93;;
6898;SDS011;3488;42.616;23.350;2023-02-28T14:06:09;18.50;;;8.35;;
6898;SDS011;3488;42.616;23.350;2023-02-28T14:08:46;14.82;;;9.65;;
6898;SDS011;3488;42.616;23.350;2023-02-28T14:11:27;15.05;;;8.38;;
6898;SDS011;3488;42.616;23.350;2023-02-28T14:13:58;17.08;;;8.63;;
6898;SDS011;3488;42.616;23.350;2023-02-28T14:16:27;14.10;;;7.30;;
6898;SDS011;3488;42.616;23.350;2023-02-28T14:19:09;14.63;;;8.05;;
6898;SDS011;3488;42.616;23.350;2023-02-28T14:21:43;14.50;;;7.50;;
6898;SDS011;3488;42.616;23.350;2023-02-28T14:24:28;18.10;;;8.60;;
6898;SDS011;3488;42.616;23.350;2023-02-28T14:27:23;16.15;;;6.85;;
6898;SDS011;3488;42.616;23.350;2023-02-28T14:30:28;12.02;;;7.72;;
6898;SDS011;3488;42.616;23.350;2023-02-28T14:36:08;15.85;;;6.72;;
6898;SDS011;3488;42.616;23.350;2023-02-28T14:38:42;14.38;;;7.90;;
6898;SDS011;3488;42.616;23.350;2023-02-28T14:41:22;14.13;;;7.25;;
6898;SDS011;3488;42.616;23.350;2023-02-28T14:43:55;13.60;;;7.57;;
6898;SDS011;3488;42.616;23.350;2023-02-28T14:46:25;17.70;;;7.47;;
6898;SDS011;3488;42.616;23.350;2023-02-28T14:48:56;18.42;;;9.48;;
6898;SDS011;3488;42.616;23.350;2023-02-28T14:51:26;13.95;;;8.35;;
6898;SDS011;3488;42.616;23.350;2023-02-28T14:53:56;12.30;;;7.00;;
6898;SDS011;3488;42.616;23.350;2023-02-28T14:56:26;14.43;;;7.63;;
6898;SDS011;3488;42.616;23.350;2023-02-28T14:58:57;19.83;;;7.00;;
6898;SDS011;3488;42.616;23.350;2023-02-28T15:01:25;15.23;;;6.82;;
6898;SDS011;3488;42.616;23.350;2023-02-28T15:03:58;13.65;;;6.47;;
6898;SDS011;3488;42.616;23.350;2023-02-28T15:06:29;16.58;;;6.95;;
6898;SDS011;3488;42.616;23.350;2023-02-28T15:09:09;18.02;;;7.45;;
6898;SDS011;3488;42.616;23.350;2023-02-28T15:11:41;12.57;;;6.63;;
6898;SDS011;3488;42.616;23.350;2023-02-28T15:14:17;12.68;;;6.38;;
6898;SDS011;3488;42.616;23.350;2023-02-28T15:16:47;17.98;;;7.18;;
6898;SDS011;3488;42.616;23.350;2023-02-28T15:19:20;18.25;;;7.45;;
6898;SDS011;3488;42.616;23.350;2023-02-28T15:21:54;14.45;;;6.80;;
6898;SDS011;3488;42.616;23.350;2023-02-28T15:24:28;12.68;;;5.78;;
6898;SDS011;3488;42.616;23.350;2023-02-28T15:27:02;8.15;;;5.30;;
6898;SDS011;3488;42.616;23.350;2023-02-28T15:29:34;13.57;;;5.43;;
6898;SDS011;3488;42.616;23.350;2023-02-28T15:32:23;14.65;;;5.22;;
6898;SDS011;3488;42.616;23.350;2023-02-28T15:34:53;8.30;;;5.07;;
6898;SDS011;3488;42.616;23.350;2023-02-28T15:37:30;9.77;;;6.20;;